Time;durP1;ratioP1;P1;durP2;ratioP2;P2;SDS_P1;SDS_P2;PMS_P1;PMS_P2;Temp;Humidity;BMP_temperature;BMP_pressure;BME280_temperature;BME280_humidity;BME280_pressure;Samples;Min_cycle;Max_cycle;Signal;HPM_P1;HPM_P2
2023/12/08 00:00:54;;;;;;;17.17;12.87;;;;;;;1.36;100.00;100574.31;5330465;28;20023;-81
2023/12/08 00:03:25;;;;;;;15.03;12.07;;;;;;;1.37;100.00;100567.47;5330240;28;20036;-81
2023/12/08 00:05:56;;;;;;;16.83;13.00;;;;;;;1.37;100.00;100576.06;5329894;28;20459;-82
2023/12/08 00:08:28;;;;;;;17.67;12.73;;;;;;;1.35;100.00;100572.56;5329756;28;20031;-81
2023/12/08 00:10:59;;;;;;;18.47;13.57;;;;;;;1.36;100.00;100566.59;5332296;28;20032;-82
2023/12/08 00:13:31;;;;;;;16.17;12.60;;;;;;;1.33;100.00;100563.97;5314614;28;20099;-81
2023/12/08 00:16:03;;;;;;;16.70;12.93;;;;;;;1.34;100.00;100555.44;5313206;28;20321;-82
2023/12/08 00:18:35;;;;;;;18.15;13.55;;;;;;;1.34;100.00;100552.00;5330754;28;20121;-82
2023/12/08 00:21:06;;;;;;;18.63;13.73;;;;;;;1.34;100.00;100550.31;5329712;28;20057;-83
2023/12/08 00:23:37;;;;;;;17.70;12.83;;;;;;;1.35;100.00;100552.00;5329516;28;20085;-81
2023/12/08 00:26:10;;;;;;;18.23;12.57;;;;;;;1.36;100.00;100558.91;5311212;28;20028;-82
2023/12/08 00:28:41;;;;;;;17.45;12.25;;;;;;;1.37;100.00;100559.75;5329832;28;20098;-81
2023/12/08 00:31:13;;;;;;;17.93;12.67;;;;;;;1.39;100.00;100553.81;5329417;28;20115;-81
2023/12/08 00:33:44;;;;;;;17.83;12.27;;;;;;;1.39;100.00;100543.56;5329641;28;20031;-81
2023/12/08 00:36:16;;;;;;;15.97;12.10;;;;;;;1.41;100.00;100544.44;5311193;28;20036;-82
2023/12/08 00:38:48;;;;;;;18.48;13.70;;;;;;;1.42;100.00;100538.47;5329888;28;20028;-81
2023/12/08 00:41:19;;;;;;;16.70;12.50;;;;;;;1.45;100.00;100540.25;5329716;28;20467;-82
2023/12/08 00:43:50;;;;;;;15.63;12.07;;;;;;;1.47;100.00;100537.72;5328994;28;20111;-83
2023/12/08 00:46:22;;;;;;;16.57;12.40;;;;;;;1.48;100.00;100535.16;5331053;28;20057;-83
2023/12/08 00:48:53;;;;;;;15.23;12.53;;;;;;;1.49;100.00;100530.91;5315197;28;20055;-82
2023/12/08 00:51:25;;;;;;;18.30;13.50;;;;;;;1.48;100.00;100534.28;5333276;28;20450;-82
2023/12/08 00:53:56;;;;;;;17.27;12.80;;;;;;;1.48;100.00;100539.44;5330375;28;20503;-81
2023/12/08 00:56:28;;;;;;;17.30;12.73;;;;;;;1.54;100.00;100530.16;5329212;28;20043;-82
2023/12/08 00:58:59;;;;;;;15.67;12.20;;;;;;;1.53;100.00;100525.88;5329354;28;20458;-81
2023/12/08 01:01:31;;;;;;;14.53;12.53;;;;;;;1.53;100.00;100525.88;5332070;28;20030;-81
2023/12/08 01:04:02;;;;;;;14.10;11.30;;;;;;;1.52;100.00;100529.25;5322446;28;20034;-81
2023/12/08 01:06:33;;;;;;;19.10;13.07;;;;;;;1.55;100.00;100528.47;5326385;28;20057;-79
2023/12/08 01:09:05;;;;;;;17.07;12.60;;;;;;;1.59;100.00;100519.97;5345116;28;20091;-80
2023/12/08 01:11:37;;;;;;;16.87;12.73;;;;;;;1.59;100.00;100519.97;5325488;28;20031;-79
2023/12/08 01:14:08;;;;;;;18.10;12.47;;;;;;;1.59;100.00;100515.69;5344038;28;20451;-81
2023/12/08 01:16:43;;;;;;;18.13;13.47;;;;;;;1.59;100.00;100507.13;5337670;28;20055;-81
2023/12/08 01:19:14;;;;;;;16.67;13.40;;;;;;;1.57;100.00;100506.22;5329528;28;20031;-82
2023/12/08 01:21:46;;;;;;;16.10;12.97;;;;;;;1.59;100.00;100499.41;5312803;28;20031;-81
2023/12/08 01:24:17;;;;;;;13.67;12.13;;;;;;;1.58;100.00;100507.97;5332915;28;20031;-82
2023/12/08 01:26:49;;;;;;;16.17;12.53;;;;;;;1.55;100.00;100497.63;5339354;28;20059;-81
2023/12/08 01:29:20;;;;;;;16.10;13.47;;;;;;;1.55;100.00;100492.50;5342023;28;20089;-82
2023/12/08 01:31:51;;;;;;;18.90;12.20;;;;;;;1.54;100.00;100493.31;5344524;28;20107;-82
2023/12/08 01:34:23;;;;;;;16.33;13.37;;;;;;;1.55;100.00;100489.94;5334244;28;20038;-83
2023/12/08 01:36:54;;;;;;;21.17;14.13;;;;;;;1.55;100.00;100487.34;5336217;28;20482;-81
2023/12/08 01:39:26;;;;;;;16.90;12.63;;;;;;;1.54;100.00;100478.75;5337248;28;20032;-83
2023/12/08 01:41:57;;;;;;;18.20;13.33;;;;;;;1.53;100.00;100486.44;5317046;28;20038;-81
2023/12/08 01:44:28;;;;;;;16.73;12.97;;;;;;;1.52;100.00;100487.28;5329030;28;20035;-80
2023/12/08 01:47:00;;;;;;;15.17;11.87;;;;;;;1.52;100.00;100470.16;5336304;28;20036;-82
2023/12/08 01:49:31;;;;;;;17.27;13.67;;;;;;;1.50;100.00;100464.16;5321573;28;20382;-82
2023/12/08 01:52:03;;;;;;;19.00;13.13;;;;;;;1.49;100.00;100466.69;5321421;28;20088;-83
2023/12/08 01:54:35;;;;;;;15.82;11.73;;;;;;;1.48;100.00;100467.50;5336845;28;20031;-81
2023/12/08 01:57:06;;;;;;;15.70;12.70;;;;;;;1.45;100.00;100479.47;5329071;28;20431;-82
2023/12/08 01:59:38;;;;;;;15.67;11.80;;;;;;;1.44;100.00;100467.44;5309355;28;20361;-82
2023/12/08 02:02:09;;;;;;;15.83;12.87;;;;;;;1.44;100.00;100470.00;5327487;28;20038;-82
2023/12/08 02:04:45;;;;;;;18.47;13.97;;;;;;;1.44;100.00;100469.16;5327432;28;20031;-81
2023/12/08 02:07:16;;;;;;;17.33;12.43;;;;;;;1.46;100.00;100464.91;5308944;28;20528;-82
2023/12/08 02:09:47;;;;;;;13.53;12.07;;;;;;;1.47;100.00;100452.97;5327011;28;20036;-82
2023/12/08 02:12:19;;;;;;;18.30;13.73;;;;;;;1.43;100.00;100458.03;5326500;28;20027;-82
2023/12/08 02:14:52;;;;;;;15.65;13.00;;;;;;;1.40;100.00;100447.69;5308976;28;20032;-82
2023/12/08 02:17:28;;;;;;;16.85;13.70;;;;;;;1.38;100.00;100439.06;5327463;28;20126;-82
2023/12/08 02:20:03;;;;;;;18.13;13.38;;;;;;;1.39;100.00;100434.81;5326771;28;20067;-82
2023/12/08 02:22:34;;;;;;;20.98;13.88;;;;;;;1.35;100.00;100426.16;5327065;28;20506;-82
2023/12/08 02:25:06;;;;;;;20.00;13.83;;;;;;;1.39;100.00;100424.56;5327339;28;20035;-82
2023/12/08 02:27:37;;;;;;;17.13;14.07;;;;;;;1.37;100.00;100411.69;5327054;28;20074;-82
2023/12/08 02:30:09;;;;;;;18.03;14.77;;;;;;;1.36;100.00;100420.22;5327386;28;20516;-84
2023/12/08 02:32:52;;;;;;;16.40;13.83;;;;;;;1.35;100.00;100431.31;5326968;28;20027;-82
2023/12/08 02:35:23;;;;;;;;;;;;;;;1.37;100.00;100432.22;5327889;28;20458;-82
2023/12/08 02:37:56;;;;;;;17.52;13.73;;;;;;;1.30;100.00;100438.06;5327084;28;19958;-81
2023/12/08 02:40:28;;;;;;;18.73;14.30;;;;;;;1.27;100.00;100441.47;5326447;28;20112;-82
2023/12/08 02:43:00;;;;;;;17.00;13.00;;;;;;;1.28;100.00;100421.78;5327337;28;20444;-82
2023/12/08 02:45:31;;;;;;;17.40;13.93;;;;;;;1.28;100.00;100419.19;5327116;28;20119;-81
2023/12/08 02:48:03;;;;;;;17.60;14.10;;;;;;;1.26;100.00;100424.31;5328237;28;20020;-81
2023/12/08 02:50:34;;;;;;;18.80;14.33;;;;;;;1.24;100.00;100415.72;5337255;28;20134;-81
2023/12/08 02:53:06;;;;;;;16.53;14.33;;;;;;;1.26;100.00;100418.31;5320514;28;20031;-81
2023/12/08 02:55:37;;;;;;;17.60;15.17;;;;;;;1.24;100.00;100419.97;5338658;28;20095;-81
2023/12/08 02:58:09;;;;;;;17.17;14.73;;;;;;;1.26;100.00;100419.16;5338927;28;20080;-81
2023/12/08 03:00:40;;;;;;;19.53;15.07;;;;;;;1.27;100.00;100427.72;5339250;28;20028;-81
2023/12/08 03:03:11;;;;;;;18.77;15.73;;;;;;;1.28;100.00;100427.75;5330930;28;20047;-81
2023/12/08 03:05:43;;;;;;;18.70;14.53;;;;;;;1.30;100.00;100434.63;5345912;28;20040;-82
2023/12/08 03:08:14;;;;;;;17.27;14.07;;;;;;;1.30;100.00;100430.34;5350945;28;20049;-77
2023/12/08 03:10:45;;;;;;;16.87;14.23;;;;;;;1.33;100.00;100433.00;5333109;28;20160;-81
2023/12/08 03:13:17;;;;;;;18.80;14.23;;;;;;;1.34;100.00;100426.19;5346415;28;20042;-81
2023/12/08 03:15:48;;;;;;;18.50;15.10;;;;;;;1.33;100.00;100427.00;5341953;28;20041;-81
2023/12/08 03:18:20;;;;;;;18.97;15.37;;;;;;;1.34;100.00;100429.59;5338248;28;20036;-82
2023/12/08 03:20:53;;;;;;;21.37;15.17;;;;;;;1.34;100.00;100426.19;5333561;28;20108;-82
2023/12/08 03:23:24;;;;;;;19.83;15.15;;;;;;;1.31;100.00;100419.25;5326488;28;20066;-82
2023/12/08 03:25:55;;;;;;;19.33;15.50;;;;;;;1.29;100.00;100413.25;5326798;28;20063;-83
2023/12/08 03:28:27;;;;;;;18.67;15.43;;;;;;;1.32;100.00;100415.88;5326577;28;20042;-83
2023/12/08 03:30:58;;;;;;;18.87;15.40;;;;;;;1.31;100.00;100413.28;5327157;28;20036;-83
2023/12/08 03:33:29;;;;;;;19.77;15.10;;;;;;;1.33;100.00;100417.59;5326400;28;20059;-83
2023/12/08 03:36:01;;;;;;;21.57;16.13;;;;;;;1.29;100.00;100415.81;5327182;28;20044;-83
2023/12/08 03:38:32;;;;;;;21.47;15.77;;;;;;;1.33;100.00;100425.28;5329401;28;20039;-83
2023/12/08 03:41:04;;;;;;;20.20;15.87;;;;;;;1.35;100.00;100426.16;5326937;28;20051;-83
2023/12/08 03:43:35;;;;;;;22.93;16.47;;;;;;;1.36;100.00;100419.34;5326627;28;20482;-84
2023/12/08 03:46:07;;;;;;;20.20;15.63;;;;;;;1.31;100.00;100421.84;5328149;28;20036;-82
2023/12/08 03:48:39;;;;;;;22.70;16.50;;;;;;;1.32;100.00;100420.13;5330040;28;20451;-83
2023/12/08 03:51:10;;;;;;;18.77;14.97;;;;;;;1.35;100.00;100421.03;5330213;28;20024;-82
2023/12/08 03:53:41;;;;;;;20.63;15.83;;;;;;;1.35;100.00;100409.91;5329349;28;20035;-82
2023/12/08 03:56:13;;;;;;;23.17;16.23;;;;;;;1.34;100.00;100408.19;5328960;28;20036;-82
2023/12/08 03:58:44;;;;;;;19.50;15.60;;;;;;;1.32;100.00;100405.59;5329117;28;20114;-82
2023/12/08 04:01:19;;;;;;;21.40;16.70;;;;;;;1.30;100.00;100406.41;5327468;28;20039;-82
2023/12/08 04:03:51;;;;;;;19.70;15.40;;;;;;;1.30;100.00;100391.84;5326470;28;20050;-82
2023/12/08 04:06:22;;;;;;;20.27;17.13;;;;;;;1.27;100.00;100387.53;5327101;28;20460;-82
2023/12/08 04:08:53;;;;;;;20.27;15.70;;;;;;;1.28;100.00;100385.81;5326522;28;20475;-81
2023/12/08 04:11:25;;;;;;;21.70;16.63;;;;;;;1.30;100.00;100380.72;5326680;28;20084;-85
2023/12/08 04:13:56;;;;;;;19.20;15.83;;;;;;;1.30;100.00;100384.13;5326544;28;20038;-82
2023/12/08 04:16:27;;;;;;;19.93;15.93;;;;;;;1.29;100.00;100372.16;5325918;28;20028;-82
2023/12/08 04:18:59;;;;;;;20.57;15.97;;;;;;;1.28;100.00;100368.69;5326484;28;20099;-83
2023/12/08 04:21:30;;;;;;;19.83;16.23;;;;;;;1.27;100.00;100378.94;5307715;28;20473;-83
2023/12/08 04:24:01;;;;;;;22.63;15.80;;;;;;;1.28;100.00;100389.25;5326520;28;20031;-83
2023/12/08 04:26:33;;;;;;;21.87;17.73;;;;;;;1.28;100.00;100402.09;5326511;28;20490;-83
2023/12/08 04:29:04;;;;;;;21.27;15.67;;;;;;;1.30;100.00;100389.28;5326022;28;20065;-83
2023/12/08 04:31:35;;;;;;;18.20;15.47;;;;;;;1.31;100.00;100385.88;5326071;28;20031;-84
2023/12/08 04:34:07;;;;;;;20.37;16.67;;;;;;;1.33;100.00;100398.75;5326036;28;20088;-83
2023/12/08 04:36:38;;;;;;;22.13;16.30;;;;;;;1.33;100.00;100402.19;5328044;28;20040;-83
2023/12/08 04:39:09;;;;;;;21.47;16.63;;;;;;;1.36;100.00;100389.38;5330520;28;20032;-83
2023/12/08 04:41:41;;;;;;;20.87;16.27;;;;;;;1.41;100.00;100376.63;5331414;28;20052;-85
2023/12/08 04:44:12;;;;;;;21.63;17.43;;;;;;;1.41;100.00;100372.34;5331907;28;20023;-84
2023/12/08 04:46:44;;;;;;;20.53;16.17;;;;;;;1.42;100.00;100371.53;5349817;28;20032;-82
2023/12/08 04:49:15;;;;;;;20.73;16.00;;;;;;;1.47;100.00;100386.16;5336013;28;20030;-82
2023/12/08 04:51:46;;;;;;;22.17;16.23;;;;;;;1.48;100.00;100398.16;5353294;28;20043;-84
2023/12/08 04:54:18;;;;;;;21.93;15.87;;;;;;;1.47;100.00;100392.16;5349442;28;20020;-84
2023/12/08 04:56:49;;;;;;;20.17;16.57;;;;;;;1.49;100.00;100382.78;5344380;28;20042;-84
2023/12/08 04:59:20;;;;;;;22.37;17.90;;;;;;;1.50;100.00;100384.50;5339884;28;20073;-84
2023/12/08 05:01:52;;;;;;;22.17;15.77;;;;;;;1.52;100.00;100379.41;5334896;28;20455;-85
2023/12/08 05:04:24;;;;;;;21.40;16.00;;;;;;;1.52;100.00;100377.69;5329887;28;20050;-85
2023/12/08 05:06:55;;;;;;;19.43;16.20;;;;;;;1.52;100.00;100374.28;5329263;28;20059;-85
2023/12/08 05:09:26;;;;;;;19.30;16.00;;;;;;;1.55;100.00;100371.75;5311108;28;20032;-85
2023/12/08 05:11:57;;;;;;;21.07;17.57;;;;;;;1.57;100.00;100364.94;5329108;28;20036;-84
2023/12/08 05:14:29;;;;;;;20.20;15.60;;;;;;;1.55;100.00;100359.75;5310944;28;20080;-84
2023/12/08 05:17:00;;;;;;;23.37;16.83;;;;;;;1.58;100.00;100356.41;5328940;28;20055;-84
2023/12/08 05:19:31;;;;;;;20.03;14.93;;;;;;;1.59;100.00;100361.53;5329047;28;20040;-83
2023/12/08 05:22:04;;;;;;;22.13;16.00;;;;;;;1.60;100.00;100357.28;5328283;28;20039;-84
2023/12/08 05:24:35;;;;;;;19.90;15.80;;;;;;;1.62;100.00;100346.16;5328635;28;20477;-83
2023/12/08 05:27:06;;;;;;;21.40;16.90;;;;;;;1.62;100.00;100355.59;5328189;28;20090;-83
2023/12/08 05:29:38;;;;;;;24.50;16.97;;;;;;;1.61;100.00;100361.56;5328472;28;20100;-84
2023/12/08 05:32:10;;;;;;;21.17;15.80;;;;;;;1.65;100.00;100371.06;5328687;28;20050;-83
2023/12/08 05:34:41;;;;;;;22.40;16.20;;;;;;;1.65;100.00;100368.50;5328743;28;20030;-83
2023/12/08 05:37:13;;;;;;;20.27;15.97;;;;;;;1.70;100.00;100372.00;5328288;28;20031;-82
2023/12/08 05:39:44;;;;;;;21.33;17.20;;;;;;;1.72;100.00;100372.03;5327936;28;20083;-83
2023/12/08 05:42:15;;;;;;;21.17;15.60;;;;;;;1.71;100.00;100376.31;5328201;28;20051;-82
2023/12/08 05:44:47;;;;;;;22.17;15.47;;;;;;;1.75;100.00;100380.63;5328030;28;20535;-83
2023/12/08 05:47:18;;;;;;;19.03;15.67;;;;;;;1.76;100.00;100384.94;5327672;28;20080;-83
2023/12/08 05:49:49;;;;;;;18.63;15.37;;;;;;;1.77;100.00;100383.25;5309736;28;20485;-83
2023/12/08 05:52:21;;;;;;;20.37;15.63;;;;;;;1.79;100.00;100391.88;5327814;28;20036;-84
2023/12/08 05:54:52;;;;;;;21.60;16.17;;;;;;;1.81;100.00;100387.59;5327846;28;20563;-83
2023/12/08 05:57:24;;;;;;;18.80;15.27;;;;;;;1.82;100.00;100385.06;5328503;28;20035;-84
2023/12/08 05:59:55;;;;;;;19.37;15.73;;;;;;;1.83;100.00;100380.78;5328397;28;20027;-83
2023/12/08 06:02:26;;;;;;;19.53;15.83;;;;;;;1.85;100.00;100385.94;5328327;28;20055;-83
2023/12/08 06:04:57;;;;;;;21.33;15.30;;;;;;;1.86;100.00;100379.97;5328068;28;20031;-84
2023/12/08 06:07:29;;;;;;;24.63;16.40;;;;;;;1.89;100.00;100372.31;5328118;28;20032;-83
2023/12/08 06:10:00;;;;;;;20.57;16.33;;;;;;;1.91;100.00;100383.47;5309035;28;20546;-83
2023/12/08 06:12:32;;;;;;;21.33;15.20;;;;;;;1.93;100.00;100386.94;5328400;28;20024;-83
2023/12/08 06:15:07;;;;;;;21.67;16.17;;;;;;;1.93;100.00;100379.22;5327411;28;20081;-84
2023/12/08 06:17:39;;;;;;;20.20;16.13;;;;;;;1.93;100.00;100374.06;5309418;28;20039;-84
2023/12/08 06:20:10;;;;;;;22.13;17.07;;;;;;;1.97;100.00;100389.56;5327694;28;20023;-83
2023/12/08 06:22:43;;;;;;;23.60;17.20;;;;;;;1.98;100.00;100391.31;5327981;28;20028;-84
2023/12/08 06:25:15;;;;;;;22.05;16.33;;;;;;;1.99;100.00;100385.31;5328374;28;20035;-84
2023/12/08 06:27:47;;;;;;;24.77;16.92;;;;;;;2.00;100.00;100386.19;5330128;28;20043;-85
2023/12/08 06:30:18;;;;;;;23.00;16.83;;;;;;;2.03;100.00;100393.97;5329222;28;20067;-84
2023/12/08 06:32:49;;;;;;;25.60;17.10;;;;;;;2.05;100.00;100399.97;5327621;28;20064;-84
2023/12/08 06:35:21;;;;;;;25.33;17.83;;;;;;;2.08;100.00;100394.03;5329046;28;20076;-85
2023/12/08 06:37:52;;;;;;;25.77;17.47;;;;;;;2.10;100.00;100392.34;5310265;28;20080;-84
2023/12/08 06:40:24;;;;;;;25.40;17.73;;;;;;;2.11;100.00;100389.81;5329902;28;20066;-84
2023/12/08 06:42:55;;;;;;;23.53;18.03;;;;;;;2.13;100.00;100390.69;5328422;28;20026;-86
2023/12/08 06:45:27;;;;;;;25.67;19.30;;;;;;;2.17;100.00;100407.91;5331230;28;20036;-84
2023/12/08 06:47:58;;;;;;;26.70;17.90;;;;;;;2.24;100.00;100405.41;5331681;28;20019;-85
2023/12/08 06:50:30;;;;;;;23.83;18.10;;;;;;;2.23;100.00;100403.69;5328506;28;20433;-85
2023/12/08 06:53:02;;;;;;;29.95;18.63;;;;;;;2.26;100.00;100406.31;5332142;28;20383;-84
2023/12/08 06:55:33;;;;;;;24.80;18.73;;;;;;;2.28;100.00;100409.75;5317745;28;20088;-85
2023/12/08 06:58:04;;;;;;;25.67;18.03;;;;;;;2.28;100.00;100408.03;5322860;28;20032;-85
2023/12/08 07:00:36;;;;;;;28.23;17.73;;;;;;;2.30;100.00;100418.34;5321836;28;20028;-84
2023/12/08 07:03:07;;;;;;;24.60;18.57;;;;;;;2.27;100.00;100420.88;5340015;28;20039;-85
2023/12/08 07:05:38;;;;;;;25.43;18.87;;;;;;;2.26;100.00;100411.44;5332273;28;20023;-85
2023/12/08 07:08:10;;;;;;;25.80;18.77;;;;;;;2.28;100.00;100409.75;5330341;28;20108;-85
2023/12/08 07:10:41;;;;;;;31.07;19.17;;;;;;;2.28;100.00;100412.31;5331504;28;20077;-85
2023/12/08 07:13:13;;;;;;;38.20;21.07;;;;;;;2.28;100.00;100414.91;5346128;28;20039;-85
2023/12/08 07:15:47;;;;;;;27.07;19.33;;;;;;;2.27;100.00;100408.91;5350105;28;20019;-84
2023/12/08 07:18:18;;;;;;;30.08;20.17;;;;;;;2.29;100.00;100409.78;5348162;28;20040;-83
2023/12/08 07:20:50;;;;;;;34.87;21.43;;;;;;;2.31;100.00;100414.94;5348256;28;20035;-84
2023/12/08 07:23:21;;;;;;;31.53;20.30;;;;;;;2.31;100.00;100412.38;5338287;28;20024;-85
2023/12/08 07:25:53;;;;;;;31.73;20.70;;;;;;;2.31;100.00;100410.66;5328897;28;20031;-84
2023/12/08 07:28:24;;;;;;;27.80;20.07;;;;;;;2.34;100.00;100415.84;5328537;28;20114;-84
2023/12/08 07:30:55;;;;;;;35.03;21.83;;;;;;;2.36;100.00;100421.03;5327341;28;20024;-84
2023/12/08 07:33:27;;;;;;;32.40;21.40;;;;;;;2.34;100.00;100426.13;5333071;28;20036;-85
2023/12/08 07:35:58;;;;;;;34.17;21.50;;;;;;;2.36;100.00;100426.16;5334095;28;20039;-85
2023/12/08 07:38:29;;;;;;;32.37;22.43;;;;;;;2.39;100.00;100431.34;5311205;28;20027;-85
2023/12/08 07:41:01;;;;;;;33.07;20.77;;;;;;;2.40;100.00;100438.25;5327292;28;20131;-85
2023/12/08 07:43:32;;;;;;;35.20;22.27;;;;;;;2.40;100.00;100435.66;5326879;28;20065;-85
2023/12/08 07:46:04;;;;;;;36.87;22.40;;;;;;;2.43;100.00;100438.28;5327607;28;20036;-84
2023/12/08 07:48:35;;;;;;;36.10;22.17;;;;;;;2.45;100.00;100439.16;5327544;28;20105;-84
2023/12/08 07:51:06;;;;;;;41.80;24.27;;;;;;;2.47;100.00;100450.34;5327353;28;20050;-83
2023/12/08 07:53:38;;;;;;;40.90;24.77;;;;;;;2.48;100.00;100452.09;5329044;28;20028;-83
2023/12/08 07:56:11;;;;;;;43.70;26.00;;;;;;;2.50;100.00;100445.25;5311362;28;20450;-81
2023/12/08 07:58:43;;;;;;;41.05;24.98;;;;;;;2.54;100.00;100452.19;5347188;28;20016;-83
2023/12/08 08:01:14;;;;;;;45.90;26.00;;;;;;;2.58;100.00;100447.94;5349938;28;20030;-82
2023/12/08 08:03:45;;;;;;;41.77;26.63;;;;;;;2.58;100.00;100452.19;5349794;28;20046;-81
2023/12/08 08:06:17;;;;;;;52.63;26.87;;;;;;;2.61;100.00;100452.25;5346487;28;20035;-83
2023/12/08 08:08:49;;;;;;;45.10;28.17;;;;;;;2.63;100.00;100443.72;5345726;28;20035;-82
2023/12/08 08:11:20;;;;;;;58.73;27.60;;;;;;;2.63;100.00;100454.00;5346818;28;20020;-81
2023/12/08 08:13:51;;;;;;;48.90;28.63;;;;;;;2.67;100.00;100454.91;5344503;28;20434;-81
2023/12/08 08:16:23;;;;;;;53.80;30.53;;;;;;;2.72;100.00;100453.25;5330326;28;20036;-82
2023/12/08 08:18:54;;;;;;;47.77;27.73;;;;;;;2.76;100.00;100456.75;5330491;28;20031;-82
2023/12/08 08:21:25;;;;;;;60.10;32.63;;;;;;;2.90;100.00;100456.09;5311065;28;20471;-81
2023/12/08 08:23:57;;;;;;;62.90;32.60;;;;;;;2.88;100.00;100457.78;5329968;28;20036;-82
2023/12/08 08:26:28;;;;;;;62.67;32.87;;;;;;;2.90;100.00;100460.38;5330069;28;20067;-82
2023/12/08 08:28:59;;;;;;;64.40;35.20;;;;;;;2.92;100.00;100453.53;5330076;28;20031;-82
2023/12/08 08:31:31;;;;;;;70.57;33.87;;;;;;;2.96;100.00;100462.16;5330446;28;20028;-82
2023/12/08 08:34:05;;;;;;;62.53;33.47;;;;;;;2.99;100.00;100455.34;5331307;28;20063;-82
2023/12/08 08:36:36;;;;;;;63.05;33.97;;;;;;;3.05;100.00;100463.16;5330673;28;20450;-81
2023/12/08 08:39:08;;;;;;;60.57;33.70;;;;;;;3.09;100.00;100470.09;5330525;28;20118;-82
2023/12/08 08:41:39;;;;;;;67.93;36.50;;;;;;;3.12;100.00;100465.81;5328903;28;20044;-82
2023/12/08 08:44:12;;;;;;;65.57;33.83;;;;;;;3.18;100.00;100471.03;5328969;28;20048;-81
2023/12/08 08:46:44;;;;;;;68.60;35.30;;;;;;;3.23;100.00;100477.97;5329202;28;20050;-81
2023/12/08 08:49:15;;;;;;;61.77;33.90;;;;;;;3.28;100.00;100488.31;5311141;28;20032;-82
2023/12/08 08:51:46;;;;;;;68.27;36.13;;;;;;;3.34;100.00;100490.13;5310530;28;20079;-81
2023/12/08 08:54:18;;;;;;;72.30;35.37;;;;;;;3.33;100.00;100483.22;5329206;28;20383;-82
2023/12/08 08:56:49;;;;;;;69.03;34.40;;;;;;;3.41;100.00;100491.91;5328951;28;20031;-83
2023/12/08 08:59:20;;;;;;;70.17;35.97;;;;;;;3.45;100.00;100489.41;5329696;28;20020;-83
2023/12/08 09:01:52;;;;;;;69.43;35.40;;;;;;;3.50;100.00;100491.16;5328525;28;20115;-83
2023/12/08 09:04:23;;;;;;;72.73;34.60;;;;;;;3.51;100.00;100496.34;5329200;28;20024;-82
2023/12/08 09:06:56;;;;;;;68.37;35.17;;;;;;;3.62;100.00;100504.19;5329393;28;20058;-81
2023/12/08 09:09:27;;;;;;;76.82;33.30;;;;;;;3.64;100.00;100498.19;5330184;28;20577;-81
2023/12/08 09:11:58;;;;;;;68.63;32.57;;;;;;;3.66;100.00;100495.63;5330414;28;20023;-80
2023/12/08 09:14:30;;;;;;;66.17;33.47;;;;;;;3.70;100.00;100505.13;5335775;28;20031;-79
2023/12/08 09:17:05;;;;;;;73.10;33.50;;;;;;;3.72;100.00;100505.13;5336496;28;20466;-81
2023/12/08 09:19:37;;;;;;;65.88;29.75;;;;;;;3.80;100.00;100495.75;5336099;28;20032;-82
2023/12/08 09:22:09;;;;;;;;;;;;;;;3.83;100.00;100504.41;5329218;28;20023;-82
2023/12/08 09:24:40;;;;;;;67.97;29.00;;;;;;;3.88;100.00;100509.63;5329324;28;19931;-82
2023/12/08 09:27:11;;;;;;;67.77;28.60;;;;;;;3.93;100.00;100501.91;5328409;28;20089;-82
2023/12/08 09:29:43;;;;;;;58.73;27.87;;;;;;;3.96;100.00;100501.94;5330066;28;20046;-83
2023/12/08 09:32:14;;;;;;;54.57;27.40;;;;;;;3.98;100.00;100497.69;5329438;28;20059;-83
2023/12/08 09:34:45;;;;;;;62.10;29.00;;;;;;;4.03;100.00;100510.63;5332969;28;20028;-83
2023/12/08 09:37:17;;;;;;;56.83;28.10;;;;;;;4.07;100.00;100515.81;5337784;28;20046;-79
2023/12/08 09:39:48;;;;;;;60.67;27.70;;;;;;;4.11;100.00;100512.41;5340829;28;20087;-79
2023/12/08 09:42:39;;;;;;;67.40;28.67;;;;;;;4.17;100.00;100517.63;5339685;28;20039;-81
2023/12/08 09:45:11;;;;;;;61.42;26.83;;;;;;;4.22;100.00;100519.38;5349154;28;20030;-83
2023/12/08 09:47:44;;;;;;;65.90;28.77;;;;;;;4.25;100.00;100517.72;5349589;28;20043;-83
2023/12/08 09:50:16;;;;;;;60.45;29.38;;;;;;;4.31;100.00;100512.59;5346000;28;20027;-83
2023/12/08 09:52:48;;;;;;;56.77;27.47;;;;;;;4.36;100.00;100525.53;5334059;28;20058;-83
2023/12/08 09:55:21;;;;;;;55.22;26.67;;;;;;;4.39;100.00;100517.81;5330942;28;20096;-83
2023/12/08 09:57:53;;;;;;;61.20;28.50;;;;;;;4.42;100.00;100522.16;5312370;28;20038;-82
2023/12/08 10:00:27;;;;;;;56.22;26.80;;;;;;;4.49;100.00;100529.06;5331428;28;20036;-82
2023/12/08 10:02:59;;;;;;;57.17;26.27;;;;;;;4.57;100.00;100525.72;5311936;28;20040;-83
2023/12/08 10:05:30;;;;;;;51.83;25.67;;;;;;;4.63;100.00;100530.03;5330586;28;20028;-84
2023/12/08 10:08:02;;;;;;;62.33;26.40;;;;;;;4.71;100.00;100533.53;5296466;28;20455;-80
2023/12/08 10:10:34;;;;;;;59.65;27.20;;;;;;;4.79;100.00;100532.75;5330370;28;20138;-82
2023/12/08 10:13:06;;;;;;;64.32;27.90;;;;;;;4.81;100.00;100524.13;5311094;28;20043;-82
2023/12/08 10:15:43;;;;;;;51.17;24.97;;;;;;;4.93;100.00;100525.97;5328964;28;20036;-79
2023/12/08 10:18:25;;;;;;;61.13;25.83;;;;;;;5.02;100.00;100518.25;5328430;28;20031;-83
2023/12/08 10:21:19;;;;;;;55.08;26.80;;;;;;;5.14;100.00;100522.63;5327952;28;20454;-83
2023/12/08 10:23:59;;;;;;;61.10;25.63;;;;;;;5.18;100.00;100523.50;5328151;28;20070;-84
2023/12/08 10:26:32;;;;;;;52.72;23.63;;;;;;;5.20;100.00;100525.25;5328657;28;20451;-83
2023/12/08 10:29:03;;;;;;;46.00;24.58;;;;;;;5.22;100.00;100535.59;5310772;28;20045;-84
2023/12/08 10:31:34;;;;;;;50.60;23.73;;;;;;;5.25;100.00;100541.63;5329752;28;20491;-83
2023/12/08 10:34:06;;;;;;;54.13;25.50;;;;;;;5.29;100.00;100537.34;5330248;28;20035;-83
2023/12/08 10:36:37;;;;;;;55.20;23.67;;;;;;;5.31;100.00;100545.97;5330111;28;20078;-81
2023/12/08 10:39:10;;;;;;;56.33;23.77;;;;;;;5.36;100.00;100540.81;5330310;28;20043;-83
2023/12/08 10:41:41;;;;;;;53.72;23.40;;;;;;;5.39;100.00;100541.69;5312416;28;20058;-85
2023/12/08 10:44:12;;;;;;;54.43;23.77;;;;;;;5.45;100.00;100544.31;5315012;28;20471;-83
2023/12/08 10:46:44;;;;;;;57.87;25.63;;;;;;;5.48;100.00;100541.72;5315537;28;20031;-86
2023/12/08 10:49:20;;;;;;;47.70;23.67;;;;;;;5.48;100.00;100543.47;5332853;28;20032;-81
2023/12/08 10:51:52;;;;;;;50.72;23.90;;;;;;;5.55;100.00;100546.94;5336325;28;20023;-85
2023/12/08 10:54:25;;;;;;;50.97;24.20;;;;;;;5.57;100.00;100542.63;5338643;28;20027;-82
2023/12/08 10:56:56;;;;;;;45.97;22.20;;;;;;;5.60;100.00;100530.59;5336447;28;20031;-83
2023/12/08 10:59:28;;;;;;;53.60;25.50;;;;;;;5.61;100.00;100521.97;5319679;28;20435;-84
2023/12/08 11:02:02;;;;;;;57.83;23.93;;;;;;;5.66;100.00;100525.41;5330223;28;20023;-84
2023/12/08 11:04:38;;;;;;;55.53;25.27;;;;;;;5.70;100.00;100539.25;5329233;28;20020;-82
2023/12/08 11:07:17;;;;;;;50.90;24.33;;;;;;;5.68;100.00;100537.50;5329669;28;20024;-83
2023/12/08 11:09:49;;;;;;;57.17;26.20;;;;;;;5.69;100.00;100536.66;5333202;28;20035;-84
2023/12/08 11:12:24;;;;;;;47.10;25.38;;;;;;;5.72;100.00;100541.84;5344429;28;20118;-84
2023/12/08 11:15:05;;;;;;;56.95;24.90;;;;;;;5.73;100.00;100536.66;5348359;28;20032;-82
2023/12/08 11:18:05;;;;;;;58.40;25.02;;;;;;;5.81;100.00;100544.44;5336418;28;20390;-83
2023/12/08 11:20:38;;;;;;;61.03;26.10;;;;;;;5.86;100.00;100542.75;5331891;28;20055;-82
2023/12/08 11:23:11;;;;;;;58.60;27.05;;;;;;;5.89;100.00;100534.97;5332741;28;20036;-82
2023/12/08 11:25:46;;;;;;;55.08;24.05;;;;;;;5.94;100.00;100538.44;5331508;28;20355;-82
2023/12/08 11:28:30;;;;;;;60.88;26.30;;;;;;;5.96;100.00;100543.63;5326630;28;20443;-83
2023/12/08 11:31:13;;;;;;;68.40;26.52;;;;;;;5.95;100.00;100547.06;5326812;28;20043;-83